Aérodrome :
LOGIN :

S'inscrire | Disclaimer

   EN    FR    IT 

 










Légende :    VFR   VFR Marginal   IFR   IFR Intensif   IFR Très Intensif
Visi : 
Plafond : 
>= 8 km
>= 3000ft
5 à 8 km
1000 à 3000 ft
1500m à 5 km
500 à 1000 ft
800 à 1500m
200 à 500 ft
< 800m
< 200 ft
Symboles :   Orages  Brouillard  Fortes neiges  Fortes précipitations  Vent > 20 kt
SIGMETs :   Divers  Orages  Givrage  Turbulence  Onde Orograph.  Cendres Volcan.






- Altitude de l'aérodrome : 2001 ft
- Code IATA : MAD


LEMD - Madrid

DERNIER METAR :
  • 151330Z 23008G19KT 190V280 9999 FEW055 17/04 Q1021 NOSIG

METARs EXPIRÉS :
  • 151300Z 18006G16KT 9999 FEW050 16/04 Q1021 NOSIG
  • 151230Z VRB04KT 9999 FEW050 15/04 Q1021 NOSIG
  • 151200Z 14007KT 110V170 9999 FEW045 15/04 Q1021 NOSIG
  • 151130Z 13008KT 080V170 9999 FEW045 15/04 Q1021 NOSIG
  • 151100Z 13008KT 090V160 9999 FEW045 14/05 Q1022 NOSIG

TAF TAF LEMD
Valide du 15 à 12h jusqu'au 16 à 18h UTC


151100Z 1512/1618 VRB05KT CAVOK TX19/1515Z TN06/1606Z
PROB30
TEMPO 1512/1518 23010KT
PROB30
TEMPO 1611/1618 22010KT



MET'MAP, la Météo Aéronautique d'un coup d'oeil ! - Copyright ORBIFLY Décembre 2007 - Disclaimer

ORBIFLY MET'MAP TEAM :

Programmation & Développement : Alexandra Zaïnal
Conception & Développement : Baudouin d'Aumeries
Co-Programmation & Développement : Marc-Olivier Méhu
Soutien technique & logistique : Manuel Goepfert

Contact : metmap@orbifly.com




SOURCES & CREDITS :

   NOAA